sensor_id;sensor_type;location;lat;lon;timestamp;P1;durP1;ratioP1;P2;durP2;ratioP2
11524;SDS011;5819;49.648;8.330;2023-07-09T00:01:45;6.80;;;4.18;;
11524;SDS011;5819;49.648;8.330;2023-07-09T00:04:13;4.90;;;4.20;;
11524;SDS011;5819;49.648;8.330;2023-07-09T00:06:41;7.22;;;4.68;;
11524;SDS011;5819;49.648;8.330;2023-07-09T00:09:11;5.85;;;4.63;;
11524;SDS011;5819;49.648;8.330;2023-07-09T00:11:41;5.85;;;4.20;;
11524;SDS011;5819;49.648;8.330;2023-07-09T00:14:10;6.15;;;4.35;;
11524;SDS011;5819;49.648;8.330;2023-07-09T00:16:40;5.32;;;4.22;;
11524;SDS011;5819;49.648;8.330;2023-07-09T00:19:12;6.15;;;4.55;;
11524;SDS011;5819;49.648;8.330;2023-07-09T00:21:43;5.85;;;4.43;;
11524;SDS011;5819;49.648;8.330;2023-07-09T00:24:11;5.85;;;4.40;;
11524;SDS011;5819;49.648;8.330;2023-07-09T00:26:39;6.38;;;4.20;;
11524;SDS011;5819;49.648;8.330;2023-07-09T00:29:08;6.45;;;4.50;;
11524;SDS011;5819;49.648;8.330;2023-07-09T00:31:37;7.88;;;4.88;;
11524;SDS011;5819;49.648;8.330;2023-07-09T00:34:08;5.95;;;4.32;;
11524;SDS011;5819;49.648;8.330;2023-07-09T00:36:41;7.20;;;4.75;;
11524;SDS011;5819;49.648;8.330;2023-07-09T00:39:13;6.30;;;4.28;;
11524;SDS011;5819;49.648;8.330;2023-07-09T00:41:45;5.70;;;4.50;;
11524;SDS011;5819;49.648;8.330;2023-07-09T00:44:21;9.73;;;4.80;;
11524;SDS011;5819;49.648;8.330;2023-07-09T00:47:14;6.03;;;4.32;;
11524;SDS011;5819;49.648;8.330;2023-07-09T00:49:46;10.05;;;6.78;;
11524;SDS011;5819;49.648;8.330;2023-07-09T00:52:20;7.53;;;4.88;;
11524;SDS011;5819;49.648;8.330;2023-07-09T00:54:54;9.15;;;5.20;;
11524;SDS011;5819;49.648;8.330;2023-07-09T00:57:24;9.48;;;4.97;;
11524;SDS011;5819;49.648;8.330;2023-07-09T00:59:59;5.18;;;4.32;;
11524;SDS011;5819;49.648;8.330;2023-07-09T01:02:35;6.38;;;4.80;;
11524;SDS011;5819;49.648;8.330;2023-07-09T01:05:04;5.30;;;4.10;;
11524;SDS011;5819;49.648;8.330;2023-07-09T01:07:34;4.85;;;4.07;;
11524;SDS011;5819;49.648;8.330;2023-07-09T01:10:02;7.15;;;4.10;;
11524;SDS011;5819;49.648;8.330;2023-07-09T01:12:31;5.75;;;4.32;;
11524;SDS011;5819;49.648;8.330;2023-07-09T01:15:00;5.78;;;4.32;;
11524;SDS011;5819;49.648;8.330;2023-07-09T01:17:28;6.60;;;4.40;;
11524;SDS011;5819;49.648;8.330;2023-07-09T01:19:57;6.22;;;4.47;;
11524;SDS011;5819;49.648;8.330;2023-07-09T01:22:26;6.85;;;4.47;;
11524;SDS011;5819;49.648;8.330;2023-07-09T01:24:57;6.47;;;4.45;;
11524;SDS011;5819;49.648;8.330;2023-07-09T01:27:29;7.00;;;4.53;;
11524;SDS011;5819;49.648;8.330;2023-07-09T01:30:00;8.13;;;4.60;;
11524;SDS011;5819;49.648;8.330;2023-07-09T01:32:32;4.88;;;4.25;;
11524;SDS011;5819;49.648;8.330;2023-07-09T01:35:02;7.40;;;4.60;;
11524;SDS011;5819;49.648;8.330;2023-07-09T01:37:35;5.82;;;4.20;;
11524;SDS011;5819;49.648;8.330;2023-07-09T01:40:05;6.90;;;4.15;;
11524;SDS011;5819;49.648;8.330;2023-07-09T01:42:53;7.88;;;4.20;;
11524;SDS011;5819;49.648;8.330;2023-07-09T01:45:26;8.20;;;4.85;;
11524;SDS011;5819;49.648;8.330;2023-07-09T01:47:55;11.82;;;5.30;;
11524;SDS011;5819;49.648;8.330;2023-07-09T01:50:24;5.35;;;4.45;;
11524;SDS011;5819;49.648;8.330;2023-07-09T01:52:57;10.40;;;4.68;;
11524;SDS011;5819;49.648;8.330;2023-07-09T01:55:25;7.20;;;4.93;;
11524;SDS011;5819;49.648;8.330;2023-07-09T01:57:57;9.90;;;4.40;;
11524;SDS011;5819;49.648;8.330;2023-07-09T02:00:25;7.13;;;4.82;;
11524;SDS011;5819;49.648;8.330;2023-07-09T02:02:53;9.02;;;4.50;;
11524;SDS011;5819;49.648;8.330;2023-07-09T02:05:23;5.30;;;4.28;;
11524;SDS011;5819;49.648;8.330;2023-07-09T02:07:51;7.03;;;4.78;;
11524;SDS011;5819;49.648;8.330;2023-07-09T02:10:22;6.93;;;4.53;;
11524;SDS011;5819;49.648;8.330;2023-07-09T02:12:51;8.18;;;4.80;;
11524;SDS011;5819;49.648;8.330;2023-07-09T02:15:20;7.93;;;4.47;;
11524;SDS011;5819;49.648;8.330;2023-07-09T02:17:48;8.10;;;4.60;;
11524;SDS011;5819;49.648;8.330;2023-07-09T02:20:18;7.00;;;4.60;;
11524;SDS011;5819;49.648;8.330;2023-07-09T02:22:47;9.30;;;5.05;;
11524;SDS011;5819;49.648;8.330;2023-07-09T02:25:17;5.80;;;4.55;;
11524;SDS011;5819;49.648;8.330;2023-07-09T02:27:46;7.18;;;5.10;;
11524;SDS011;5819;49.648;8.330;2023-07-09T02:30:17;11.40;;;6.05;;
11524;SDS011;5819;49.648;8.330;2023-07-09T02:32:44;6.45;;;4.75;;
11524;SDS011;5819;49.648;8.330;2023-07-09T02:35:12;8.98;;;4.57;;
11524;SDS011;5819;49.648;8.330;2023-07-09T02:37:40;6.95;;;4.53;;
11524;SDS011;5819;49.648;8.330;2023-07-09T02:40:09;7.47;;;4.75;;
11524;SDS011;5819;49.648;8.330;2023-07-09T02:42:41;9.18;;;4.50;;
11524;SDS011;5819;49.648;8.330;2023-07-09T02:45:11;9.15;;;4.78;;
11524;SDS011;5819;49.648;8.330;2023-07-09T02:47:38;8.27;;;5.25;;
11524;SDS011;5819;49.648;8.330;2023-07-09T02:50:07;8.75;;;5.53;;
11524;SDS011;5819;49.648;8.330;2023-07-09T02:52:36;7.18;;;5.13;;
11524;SDS011;5819;49.648;8.330;2023-07-09T02:55:04;7.43;;;4.90;;
11524;SDS011;5819;49.648;8.330;2023-07-09T02:57:32;5.88;;;4.80;;
11524;SDS011;5819;49.648;8.330;2023-07-09T03:00:00;8.15;;;5.32;;
11524;SDS011;5819;49.648;8.330;2023-07-09T03:02:34;10.68;;;5.25;;
11524;SDS011;5819;49.648;8.330;2023-07-09T03:05:03;8.23;;;4.90;;
11524;SDS011;5819;49.648;8.330;2023-07-09T03:07:31;6.95;;;4.50;;
11524;SDS011;5819;49.648;8.330;2023-07-09T03:09:58;6.72;;;4.80;;
11524;SDS011;5819;49.648;8.330;2023-07-09T03:12:26;7.63;;;5.00;;
11524;SDS011;5819;49.648;8.330;2023-07-09T03:14:54;6.15;;;5.10;;
11524;SDS011;5819;49.648;8.330;2023-07-09T03:17:22;6.90;;;5.65;;
11524;SDS011;5819;49.648;8.330;2023-07-09T03:19:52;6.72;;;4.97;;
11524;SDS011;5819;49.648;8.330;2023-07-09T03:22:20;6.40;;;5.25;;
11524;SDS011;5819;49.648;8.330;2023-07-09T03:24:48;8.02;;;5.38;;
11524;SDS011;5819;49.648;8.330;2023-07-09T03:27:17;8.25;;;5.50;;
11524;SDS011;5819;49.648;8.330;2023-07-09T03:29:44;7.88;;;5.18;;
11524;SDS011;5819;49.648;8.330;2023-07-09T03:32:12;9.80;;;5.20;;
11524;SDS011;5819;49.648;8.330;2023-07-09T03:34:40;8.48;;;5.38;;
11524;SDS011;5819;49.648;8.330;2023-07-09T03:37:10;9.70;;;4.97;;
11524;SDS011;5819;49.648;8.330;2023-07-09T03:39:37;10.57;;;6.05;;
11524;SDS011;5819;49.648;8.330;2023-07-09T03:42:05;7.75;;;5.40;;
11524;SDS011;5819;49.648;8.330;2023-07-09T03:44:35;6.15;;;5.28;;
11524;SDS011;5819;49.648;8.330;2023-07-09T03:47:03;8.00;;;5.40;;
11524;SDS011;5819;49.648;8.330;2023-07-09T03:49:31;9.57;;;5.60;;
11524;SDS011;5819;49.648;8.330;2023-07-09T03:51:59;8.57;;;5.00;;
11524;SDS011;5819;49.648;8.330;2023-07-09T03:54:29;8.20;;;5.10;;
11524;SDS011;5819;49.648;8.330;2023-07-09T03:56:57;8.15;;;4.55;;
11524;SDS011;5819;49.648;8.330;2023-07-09T03:59:25;8.18;;;4.45;;
11524;SDS011;5819;49.648;8.330;2023-07-09T04:01:53;9.38;;;4.82;;
11524;SDS011;5819;49.648;8.330;2023-07-09T04:04:21;8.82;;;5.30;;
11524;SDS011;5819;49.648;8.330;2023-07-09T04:06:49;8.48;;;4.72;;
11524;SDS011;5819;49.648;8.330;2023-07-09T04:09:17;6.25;;;4.72;;
11524;SDS011;5819;49.648;8.330;2023-07-09T04:11:46;13.82;;;6.20;;
11524;SDS011;5819;49.648;8.330;2023-07-09T04:14:14;7.20;;;4.72;;
11524;SDS011;5819;49.648;8.330;2023-07-09T04:16:42;6.15;;;4.60;;
11524;SDS011;5819;49.648;8.330;2023-07-09T04:19:10;4.97;;;4.28;;
11524;SDS011;5819;49.648;8.330;2023-07-09T04:21:38;8.27;;;4.50;;
11524;SDS011;5819;49.648;8.330;2023-07-09T04:24:06;9.82;;;4.80;;
11524;SDS011;5819;49.648;8.330;2023-07-09T04:26:34;7.28;;;4.63;;
11524;SDS011;5819;49.648;8.330;2023-07-09T04:29:07;5.35;;;4.85;;
11524;SDS011;5819;49.648;8.330;2023-07-09T04:31:35;5.13;;;4.40;;
11524;SDS011;5819;49.648;8.330;2023-07-09T04:34:03;6.63;;;4.60;;
11524;SDS011;5819;49.648;8.330;2023-07-09T04:36:32;6.32;;;4.40;;
11524;SDS011;5819;49.648;8.330;2023-07-09T04:39:01;6.18;;;4.72;;
11524;SDS011;5819;49.648;8.330;2023-07-09T04:41:30;7.32;;;4.47;;
11524;SDS011;5819;49.648;8.330;2023-07-09T04:43:58;8.55;;;4.65;;
11524;SDS011;5819;49.648;8.330;2023-07-09T04:46:27;9.65;;;5.20;;
11524;SDS011;5819;49.648;8.330;2023-07-09T04:48:55;8.50;;;4.88;;
11524;SDS011;5819;49.648;8.330;2023-07-09T04:51:23;8.13;;;4.80;;
11524;SDS011;5819;49.648;8.330;2023-07-09T04:53:51;8.52;;;4.72;;
11524;SDS011;5819;49.648;8.330;2023-07-09T04:56:19;7.35;;;4.90;;
11524;SDS011;5819;49.648;8.330;2023-07-09T04:58:47;8.77;;;4.93;;
11524;SDS011;5819;49.648;8.330;2023-07-09T05:01:16;9.40;;;6.35;;
11524;SDS011;5819;49.648;8.330;2023-07-09T05:03:45;7.32;;;5.07;;
11524;SDS011;5819;49.648;8.330;2023-07-09T05:06:13;8.45;;;5.53;;
11524;SDS011;5819;49.648;8.330;2023-07-09T05:08:41;10.93;;;5.07;;
11524;SDS011;5819;49.648;8.330;2023-07-09T05:11:10;8.77;;;5.05;;
11524;SDS011;5819;49.648;8.330;2023-07-09T05:13:37;10.55;;;5.47;;
11524;SDS011;5819;49.648;8.330;2023-07-09T05:16:05;9.00;;;5.22;;
11524;SDS011;5819;49.648;8.330;2023-07-09T05:18:34;6.97;;;5.05;;
11524;SDS011;5819;49.648;8.330;2023-07-09T05:21:03;6.95;;;4.55;;
11524;SDS011;5819;49.648;8.330;2023-07-09T05:23:31;7.45;;;4.90;;
11524;SDS011;5819;49.648;8.330;2023-07-09T05:25:59;7.00;;;5.05;;
11524;SDS011;5819;49.648;8.330;2023-07-09T05:28:29;6.78;;;4.97;;
11524;SDS011;5819;49.648;8.330;2023-07-09T05:30:59;10.95;;;4.82;;
11524;SDS011;5819;49.648;8.330;2023-07-09T05:33:27;5.72;;;5.22;;
11524;SDS011;5819;49.648;8.330;2023-07-09T05:35:54;7.00;;;4.93;;
11524;SDS011;5819;49.648;8.330;2023-07-09T05:38:24;10.38;;;6.03;;
11524;SDS011;5819;49.648;8.330;2023-07-09T05:40:59;10.65;;;5.72;;
11524;SDS011;5819;49.648;8.330;2023-07-09T05:43:27;8.73;;;5.93;;
11524;SDS011;5819;49.648;8.330;2023-07-09T05:45:55;10.48;;;6.18;;
11524;SDS011;5819;49.648;8.330;2023-07-09T05:48:23;8.10;;;6.43;;
11524;SDS011;5819;49.648;8.330;2023-07-09T05:50:52;9.75;;;6.22;;
11524;SDS011;5819;49.648;8.330;2023-07-09T05:53:21;10.80;;;6.03;;
11524;SDS011;5819;49.648;8.330;2023-07-09T05:55:53;7.90;;;6.38;;
11524;SDS011;5819;49.648;8.330;2023-07-09T05:58:21;10.82;;;7.18;;
11524;SDS011;5819;49.648;8.330;2023-07-09T06:00:50;10.02;;;7.00;;
11524;SDS011;5819;49.648;8.330;2023-07-09T06:03:20;7.55;;;6.10;;
11524;SDS011;5819;49.648;8.330;2023-07-09T06:05:49;7.38;;;5.95;;
11524;SDS011;5819;49.648;8.330;2023-07-09T06:08:18;6.68;;;5.63;;
11524;SDS011;5819;49.648;8.330;2023-07-09T06:10:50;8.65;;;5.93;;
11524;SDS011;5819;49.648;8.330;2023-07-09T06:13:20;10.38;;;6.10;;
11524;SDS011;5819;49.648;8.330;2023-07-09T06:15:49;9.57;;;5.70;;
11524;SDS011;5819;49.648;8.330;2023-07-09T06:18:18;6.47;;;5.40;;
11524;SDS011;5819;49.648;8.330;2023-07-09T06:20:47;10.60;;;7.82;;
11524;SDS011;5819;49.648;8.330;2023-07-09T06:23:16;11.85;;;7.88;;
11524;SDS011;5819;49.648;8.330;2023-07-09T06:25:45;10.65;;;6.18;;
11524;SDS011;5819;49.648;8.330;2023-07-09T06:28:14;9.93;;;7.05;;
11524;SDS011;5819;49.648;8.330;2023-07-09T06:30:44;9.38;;;6.50;;
11524;SDS011;5819;49.648;8.330;2023-07-09T06:33:13;9.43;;;6.15;;
11524;SDS011;5819;49.648;8.330;2023-07-09T06:35:45;6.90;;;6.20;;
11524;SDS011;5819;49.648;8.330;2023-07-09T06:38:15;8.57;;;6.28;;
11524;SDS011;5819;49.648;8.330;2023-07-09T06:40:43;7.38;;;5.55;;
11524;SDS011;5819;49.648;8.330;2023-07-09T06:43:11;9.73;;;6.40;;
11524;SDS011;5819;49.648;8.330;2023-07-09T06:45:53;11.77;;;6.20;;
11524;SDS011;5819;49.648;8.330;2023-07-09T06:48:22;8.73;;;5.78;;
11524;SDS011;5819;49.648;8.330;2023-07-09T06:50:51;7.32;;;4.90;;
11524;SDS011;5819;49.648;8.330;2023-07-09T06:53:20;6.10;;;5.07;;
11524;SDS011;5819;49.648;8.330;2023-07-09T06:55:49;8.60;;;5.88;;
11524;SDS011;5819;49.648;8.330;2023-07-09T06:58:19;7.70;;;5.50;;
11524;SDS011;5819;49.648;8.330;2023-07-09T07:00:47;9.00;;;5.82;;
11524;SDS011;5819;49.648;8.330;2023-07-09T07:03:17;9.48;;;6.30;;
11524;SDS011;5819;49.648;8.330;2023-07-09T07:05:46;7.85;;;5.50;;
11524;SDS011;5819;49.648;8.330;2023-07-09T07:08:16;7.97;;;5.85;;
11524;SDS011;5819;49.648;8.330;2023-07-09T07:10:47;7.38;;;5.53;;
11524;SDS011;5819;49.648;8.330;2023-07-09T07:13:15;8.82;;;5.22;;
11524;SDS011;5819;49.648;8.330;2023-07-09T07:15:44;7.45;;;5.47;;
11524;SDS011;5819;49.648;8.330;2023-07-09T07:18:17;7.05;;;4.95;;
11524;SDS011;5819;49.648;8.330;2023-07-09T07:20:45;6.93;;;5.20;;
11524;SDS011;5819;49.648;8.330;2023-07-09T07:23:13;7.57;;;5.55;;
11524;SDS011;5819;49.648;8.330;2023-07-09T07:25:41;10.52;;;5.22;;
11524;SDS011;5819;49.648;8.330;2023-07-09T07:28:09;8.02;;;5.22;;
11524;SDS011;5819;49.648;8.330;2023-07-09T07:30:37;8.38;;;5.43;;
11524;SDS011;5819;49.648;8.330;2023-07-09T07:33:05;7.72;;;5.18;;
11524;SDS011;5819;49.648;8.330;2023-07-09T07:35:34;7.60;;;5.28;;
11524;SDS011;5819;49.648;8.330;2023-07-09T07:38:09;5.72;;;5.10;;
11524;SDS011;5819;49.648;8.330;2023-07-09T07:40:37;6.82;;;4.55;;
11524;SDS011;5819;49.648;8.330;2023-07-09T07:43:05;5.85;;;5.00;;
11524;SDS011;5819;49.648;8.330;2023-07-09T07:45:33;7.93;;;5.68;;
11524;SDS011;5819;49.648;8.330;2023-07-09T07:48:01;7.72;;;4.53;;
11524;SDS011;5819;49.648;8.330;2023-07-09T07:50:29;7.88;;;5.43;;
11524;SDS011;5819;49.648;8.330;2023-07-09T07:52:58;6.28;;;5.13;;
11524;SDS011;5819;49.648;8.330;2023-07-09T07:55:26;9.60;;;6.13;;
11524;SDS011;5819;49.648;8.330;2023-07-09T07:57:55;9.38;;;5.72;;
11524;SDS011;5819;49.648;8.330;2023-07-09T08:00:23;11.75;;;5.55;;
11524;SDS011;5819;49.648;8.330;2023-07-09T08:02:51;9.05;;;5.78;;
11524;SDS011;5819;49.648;8.330;2023-07-09T08:05:19;9.95;;;5.45;;
11524;SDS011;5819;49.648;8.330;2023-07-09T08:07:47;7.80;;;4.72;;
11524;SDS011;5819;49.648;8.330;2023-07-09T08:10:17;7.43;;;5.90;;
11524;SDS011;5819;49.648;8.330;2023-07-09T08:12:45;13.93;;;6.50;;
11524;SDS011;5819;49.648;8.330;2023-07-09T08:15:13;7.75;;;5.55;;
11524;SDS011;5819;49.648;8.330;2023-07-09T08:17:41;7.30;;;5.03;;
11524;SDS011;5819;49.648;8.330;2023-07-09T08:20:09;9.80;;;5.38;;
11524;SDS011;5819;49.648;8.330;2023-07-09T08:22:38;7.05;;;5.20;;
11524;SDS011;5819;49.648;8.330;2023-07-09T08:25:06;6.97;;;5.78;;
11524;SDS011;5819;49.648;8.330;2023-07-09T08:27:37;6.10;;;5.22;;
11524;SDS011;5819;49.648;8.330;2023-07-09T08:30:05;6.55;;;5.63;;
11524;SDS011;5819;49.648;8.330;2023-07-09T08:32:34;6.70;;;5.50;;
11524;SDS011;5819;49.648;8.330;2023-07-09T08:35:03;9.27;;;5.45;;
11524;SDS011;5819;49.648;8.330;2023-07-09T08:37:51;6.65;;;5.60;;
11524;SDS011;5819;49.648;8.330;2023-07-09T08:40:19;10.88;;;6.60;;
11524;SDS011;5819;49.648;8.330;2023-07-09T08:42:49;5.97;;;4.78;;
11524;SDS011;5819;49.648;8.330;2023-07-09T08:45:29;9.43;;;5.65;;
11524;SDS011;5819;49.648;8.330;2023-07-09T08:48:06;9.93;;;5.60;;
11524;SDS011;5819;49.648;8.330;2023-07-09T08:50:40;8.07;;;5.65;;
11524;SDS011;5819;49.648;8.330;2023-07-09T08:53:13;9.48;;;5.60;;
11524;SDS011;5819;49.648;8.330;2023-07-09T08:55:47;8.88;;;6.07;;
11524;SDS011;5819;49.648;8.330;2023-07-09T08:58:20;9.80;;;5.45;;
11524;SDS011;5819;49.648;8.330;2023-07-09T09:00:53;7.53;;;5.93;;
11524;SDS011;5819;49.648;8.330;2023-07-09T09:03:26;8.93;;;5.15;;
11524;SDS011;5819;49.648;8.330;2023-07-09T09:05:58;7.90;;;5.72;;
11524;SDS011;5819;49.648;8.330;2023-07-09T09:08:30;7.78;;;6.05;;
11524;SDS011;5819;49.648;8.330;2023-07-09T09:11:08;8.80;;;5.68;;
11524;SDS011;5819;49.648;8.330;2023-07-09T09:13:45;10.60;;;6.18;;
11524;SDS011;5819;49.648;8.330;2023-07-09T09:16:16;6.50;;;5.50;;
11524;SDS011;5819;49.648;8.330;2023-07-09T09:18:50;6.32;;;5.13;;
11524;SDS011;5819;49.648;8.330;2023-07-09T09:21:23;9.85;;;5.78;;
11524;SDS011;5819;49.648;8.330;2023-07-09T09:23:54;7.38;;;5.60;;
11524;SDS011;5819;49.648;8.330;2023-07-09T09:26:27;8.60;;;6.00;;
11524;SDS011;5819;49.648;8.330;2023-07-09T09:28:59;9.13;;;5.63;;
11524;SDS011;5819;49.648;8.330;2023-07-09T09:31:28;8.68;;;5.13;;
11524;SDS011;5819;49.648;8.330;2023-07-09T09:34:00;8.90;;;5.25;;
11524;SDS011;5819;49.648;8.330;2023-07-09T09:36:27;9.20;;;5.93;;
11524;SDS011;5819;49.648;8.330;2023-07-09T09:39:01;8.45;;;5.45;;
11524;SDS011;5819;49.648;8.330;2023-07-09T09:41:32;6.40;;;5.18;;
11524;SDS011;5819;49.648;8.330;2023-07-09T09:44:15;6.85;;;5.38;;
11524;SDS011;5819;49.648;8.330;2023-07-09T09:46:47;7.95;;;5.47;;
11524;SDS011;5819;49.648;8.330;2023-07-09T09:49:17;8.85;;;6.10;;
11524;SDS011;5819;49.648;8.330;2023-07-09T09:51:46;15.23;;;6.97;;
11524;SDS011;5819;49.648;8.330;2023-07-09T09:54:18;9.68;;;5.38;;
11524;SDS011;5819;49.648;8.330;2023-07-09T09:56:49;8.65;;;5.25;;
11524;SDS011;5819;49.648;8.330;2023-07-09T09:59:21;6.32;;;5.13;;
11524;SDS011;5819;49.648;8.330;2023-07-09T10:01:57;7.10;;;5.32;;
11524;SDS011;5819;49.648;8.330;2023-07-09T10:04:28;5.20;;;4.65;;
11524;SDS011;5819;49.648;8.330;2023-07-09T10:06:58;6.85;;;5.07;;
11524;SDS011;5819;49.648;8.330;2023-07-09T10:09:37;6.97;;;4.78;;
11524;SDS011;5819;49.648;8.330;2023-07-09T10:12:14;8.95;;;4.97;;
11524;SDS011;5819;49.648;8.330;2023-07-09T10:15:00;5.80;;;4.85;;
11524;SDS011;5819;49.648;8.330;2023-07-09T10:17:42;5.43;;;4.32;;
11524;SDS011;5819;49.648;8.330;2023-07-09T10:20:18;5.63;;;4.10;;
11524;SDS011;5819;49.648;8.330;2023-07-09T10:22:55;6.95;;;4.80;;
11524;SDS011;5819;49.648;8.330;2023-07-09T10:25:33;5.55;;;4.40;;
11524;SDS011;5819;49.648;8.330;2023-07-09T10:28:22;6.63;;;4.10;;
11524;SDS011;5819;49.648;8.330;2023-07-09T10:31:07;4.65;;;4.15;;
11524;SDS011;5819;49.648;8.330;2023-07-09T10:33:49;6.70;;;4.88;;
11524;SDS011;5819;49.648;8.330;2023-07-09T10:36:31;6.35;;;4.50;;
11524;SDS011;5819;49.648;8.330;2023-07-09T10:39:14;6.78;;;4.53;;
11524;SDS011;5819;49.648;8.330;2023-07-09T10:41:48;5.38;;;3.85;;
11524;SDS011;5819;49.648;8.330;2023-07-09T10:44:20;4.53;;;3.63;;
11524;SDS011;5819;49.648;8.330;2023-07-09T10:46:58;6.43;;;4.25;;
11524;SDS011;5819;49.648;8.330;2023-07-09T10:49:35;4.75;;;3.65;;
11524;SDS011;5819;49.648;8.330;2023-07-09T10:52:10;6.13;;;3.80;;
11524;SDS011;5819;49.648;8.330;2023-07-09T10:54:52;6.53;;;3.63;;
11524;SDS011;5819;49.648;8.330;2023-07-09T10:57:28;5.78;;;3.70;;
11524;SDS011;5819;49.648;8.330;2023-07-09T11:00:01;4.82;;;3.50;;
11524;SDS011;5819;49.648;8.330;2023-07-09T11:02:33;4.72;;;3.80;;
11524;SDS011;5819;49.648;8.330;2023-07-09T11:05:04;7.07;;;3.67;;
11524;SDS011;5819;49.648;8.330;2023-07-09T11:07:36;6.95;;;3.78;;
11524;SDS011;5819;49.648;8.330;2023-07-09T11:10:17;6.85;;;3.63;;
11524;SDS011;5819;49.648;8.330;2023-07-09T11:12:58;6.57;;;4.10;;
11524;SDS011;5819;49.648;8.330;2023-07-09T11:15:31;4.30;;;3.90;;
11524;SDS011;5819;49.648;8.330;2023-07-09T11:18:05;4.85;;;4.05;;
11524;SDS011;5819;49.648;8.330;2023-07-09T11:20:35;4.50;;;4.10;;
11524;SDS011;5819;49.648;8.330;2023-07-09T11:23:05;7.55;;;4.38;;
11524;SDS011;5819;49.648;8.330;2023-07-09T11:25:40;5.25;;;4.68;;
11524;SDS011;5819;49.648;8.330;2023-07-09T11:28:10;5.13;;;4.05;;
11524;SDS011;5819;49.648;8.330;2023-07-09T11:30:45;4.45;;;3.75;;
11524;SDS011;5819;49.648;8.330;2023-07-09T11:33:17;6.25;;;3.72;;
11524;SDS011;5819;49.648;8.330;2023-07-09T11:35:51;7.07;;;3.95;;
11524;SDS011;5819;49.648;8.330;2023-07-09T11:38:21;5.60;;;4.15;;
11524;SDS011;5819;49.648;8.330;2023-07-09T11:40:51;4.43;;;3.97;;
11524;SDS011;5819;49.648;8.330;2023-07-09T11:43:25;6.05;;;3.97;;
11524;SDS011;5819;49.648;8.330;2023-07-09T11:45:56;6.88;;;4.20;;
11524;SDS011;5819;49.648;8.330;2023-07-09T11:48:27;4.50;;;3.55;;
11524;SDS011;5819;49.648;8.330;2023-07-09T11:51:02;7.03;;;3.42;;
11524;SDS011;5819;49.648;8.330;2023-07-09T11:53:37;7.95;;;3.72;;
11524;SDS011;5819;49.648;8.330;2023-07-09T11:56:13;6.00;;;3.90;;
11524;SDS011;5819;49.648;8.330;2023-07-09T11:58:48;5.38;;;3.60;;
11524;SDS011;5819;49.648;8.330;2023-07-09T12:01:18;4.05;;;3.55;;
11524;SDS011;5819;49.648;8.330;2023-07-09T12:03:52;3.95;;;3.33;;
11524;SDS011;5819;49.648;8.330;2023-07-09T12:06:20;4.32;;;3.08;;
11524;SDS011;5819;49.648;8.330;2023-07-09T12:08:51;8.18;;;3.40;;
11524;SDS011;5819;49.648;8.330;2023-07-09T12:11:20;3.95;;;3.53;;
11524;SDS011;5819;49.648;8.330;2023-07-09T12:13:50;6.30;;;3.17;;
11524;SDS011;5819;49.648;8.330;2023-07-09T12:16:20;5.93;;;3.20;;
11524;SDS011;5819;49.648;8.330;2023-07-09T12:18:49;3.90;;;3.20;;
11524;SDS011;5819;49.648;8.330;2023-07-09T12:21:18;3.50;;;2.88;;
11524;SDS011;5819;49.648;8.330;2023-07-09T12:23:47;5.32;;;3.53;;
11524;SDS011;5819;49.648;8.330;2023-07-09T12:26:16;4.93;;;3.10;;
11524;SDS011;5819;49.648;8.330;2023-07-09T12:28:50;4.85;;;3.40;;
11524;SDS011;5819;49.648;8.330;2023-07-09T12:31:20;5.75;;;3.78;;
11524;SDS011;5819;49.648;8.330;2023-07-09T12:33:53;5.78;;;3.70;;
11524;SDS011;5819;49.648;8.330;2023-07-09T12:36:25;6.15;;;3.75;;
11524;SDS011;5819;49.648;8.330;2023-07-09T12:38:55;6.78;;;3.58;;
11524;SDS011;5819;49.648;8.330;2023-07-09T12:41:28;4.30;;;3.47;;
11524;SDS011;5819;49.648;8.330;2023-07-09T12:44:00;5.20;;;3.60;;
11524;SDS011;5819;49.648;8.330;2023-07-09T12:46:28;5.22;;;4.15;;
11524;SDS011;5819;49.648;8.330;2023-07-09T12:48:56;5.13;;;4.03;;
11524;SDS011;5819;49.648;8.330;2023-07-09T12:51:28;5.75;;;4.15;;
11524;SDS011;5819;49.648;8.330;2023-07-09T12:54:02;6.35;;;4.00;;
11524;SDS011;5819;49.648;8.330;2023-07-09T12:56:32;6.28;;;3.60;;
11524;SDS011;5819;49.648;8.330;2023-07-09T12:59:01;6.53;;;4.07;;
11524;SDS011;5819;49.648;8.330;2023-07-09T13:01:32;6.22;;;4.32;;
11524;SDS011;5819;49.648;8.330;2023-07-09T13:04:02;4.38;;;3.60;;
11524;SDS011;5819;49.648;8.330;2023-07-09T13:06:34;5.53;;;4.03;;
11524;SDS011;5819;49.648;8.330;2023-07-09T13:09:05;4.43;;;3.40;;
11524;SDS011;5819;49.648;8.330;2023-07-09T13:11:44;4.88;;;4.10;;
11524;SDS011;5819;49.648;8.330;2023-07-09T13:14:16;4.85;;;4.13;;
11524;SDS011;5819;49.648;8.330;2023-07-09T13:16:46;5.38;;;3.95;;
11524;SDS011;5819;49.648;8.330;2023-07-09T13:19:14;6.72;;;3.85;;
11524;SDS011;5819;49.648;8.330;2023-07-09T13:21:43;5.20;;;3.97;;
11524;SDS011;5819;49.648;8.330;2023-07-09T13:24:13;5.88;;;4.00;;
11524;SDS011;5819;49.648;8.330;2023-07-09T13:26:43;5.63;;;4.43;;
11524;SDS011;5819;49.648;8.330;2023-07-09T13:29:13;5.65;;;3.88;;
11524;SDS011;5819;49.648;8.330;2023-07-09T13:31:43;6.20;;;4.38;;
11524;SDS011;5819;49.648;8.330;2023-07-09T13:34:19;5.43;;;4.35;;
11524;SDS011;5819;49.648;8.330;2023-07-09T13:36:50;8.65;;;4.35;;
11524;SDS011;5819;49.648;8.330;2023-07-09T13:39:19;7.95;;;3.65;;
11524;SDS011;5819;49.648;8.330;2023-07-09T13:41:48;5.10;;;3.88;;
11524;SDS011;5819;49.648;8.330;2023-07-09T13:44:20;6.13;;;4.15;;
11524;SDS011;5819;49.648;8.330;2023-07-09T13:46:51;5.28;;;3.78;;
11524;SDS011;5819;49.648;8.330;2023-07-09T13:49:21;4.20;;;3.80;;
11524;SDS011;5819;49.648;8.330;2023-07-09T13:51:53;9.43;;;4.72;;
11524;SDS011;5819;49.648;8.330;2023-07-09T13:54:24;8.15;;;4.28;;
11524;SDS011;5819;49.648;8.330;2023-07-09T13:56:58;4.43;;;3.53;;
11524;SDS011;5819;49.648;8.330;2023-07-09T13:59:26;4.78;;;3.50;;
11524;SDS011;5819;49.648;8.330;2023-07-09T14:01:57;5.00;;;3.97;;
11524;SDS011;5819;49.648;8.330;2023-07-09T14:04:26;4.97;;;4.00;;
11524;SDS011;5819;49.648;8.330;2023-07-09T14:06:56;4.95;;;4.10;;
11524;SDS011;5819;49.648;8.330;2023-07-09T14:09:24;5.45;;;4.00;;
11524;SDS011;5819;49.648;8.330;2023-07-09T14:11:52;5.68;;;4.30;;
11524;SDS011;5819;49.648;8.330;2023-07-09T14:14:21;6.93;;;3.55;;
11524;SDS011;5819;49.648;8.330;2023-07-09T14:16:51;4.13;;;3.72;;
11524;SDS011;5819;49.648;8.330;2023-07-09T14:19:20;7.53;;;3.80;;
11524;SDS011;5819;49.648;8.330;2023-07-09T14:21:49;4.95;;;3.67;;
11524;SDS011;5819;49.648;8.330;2023-07-09T14:24:21;5.82;;;3.35;;
11524;SDS011;5819;49.648;8.330;2023-07-09T14:26:51;4.88;;;3.90;;
11524;SDS011;5819;49.648;8.330;2023-07-09T14:29:21;5.00;;;3.50;;
11524;SDS011;5819;49.648;8.330;2023-07-09T14:31:49;6.35;;;3.55;;
11524;SDS011;5819;49.648;8.330;2023-07-09T14:34:20;6.65;;;4.32;;
11524;SDS011;5819;49.648;8.330;2023-07-09T14:36:49;4.05;;;3.65;;
11524;SDS011;5819;49.648;8.330;2023-07-09T14:39:22;3.95;;;3.53;;
11524;SDS011;5819;49.648;8.330;2023-07-09T14:41:50;6.25;;;4.00;;
11524;SDS011;5819;49.648;8.330;2023-07-09T14:44:22;7.63;;;3.75;;
11524;SDS011;5819;49.648;8.330;2023-07-09T14:46:52;5.07;;;3.67;;
11524;SDS011;5819;49.648;8.330;2023-07-09T14:49:22;5.70;;;3.53;;
11524;SDS011;5819;49.648;8.330;2023-07-09T14:51:50;8.35;;;3.42;;
11524;SDS011;5819;49.648;8.330;2023-07-09T14:54:20;6.05;;;3.67;;
11524;SDS011;5819;49.648;8.330;2023-07-09T14:56:51;5.22;;;3.25;;
11524;SDS011;5819;49.648;8.330;2023-07-09T14:59:20;5.10;;;3.72;;
11524;SDS011;5819;49.648;8.330;2023-07-09T15:01:48;4.18;;;3.42;;
11524;SDS011;5819;49.648;8.330;2023-07-09T15:04:25;6.57;;;3.60;;
11524;SDS011;5819;49.648;8.330;2023-07-09T15:07:00;4.97;;;3.97;;
11524;SDS011;5819;49.648;8.330;2023-07-09T15:09:35;3.80;;;3.40;;
11524;SDS011;5819;49.648;8.330;2023-07-09T15:12:04;5.50;;;3.60;;
11524;SDS011;5819;49.648;8.330;2023-07-09T15:14:40;5.47;;;3.60;;
11524;SDS011;5819;49.648;8.330;2023-07-09T15:17:09;6.35;;;3.70;;
11524;SDS011;5819;49.648;8.330;2023-07-09T15:19:37;4.90;;;3.38;;
11524;SDS011;5819;49.648;8.330;2023-07-09T15:22:08;5.95;;;3.47;;